Time;durP1;ratioP1;P1;durP2;ratioP2;P2;SDS_P1;SDS_P2;PMS_P1;PMS_P2;Temp;Humidity;BMP_temperature;BMP_pressure;BME280_temperature;BME280_humidity;BME280_pressure;Samples;Min_cycle;Max_cycle;Signal;HPM_P1;HPM_P2
2021/05/17 00:01:36;;;;;;;2.95;2.10;;;14.00;85.40;;;;;;5041616;28;20567;-64
2021/05/17 00:04:05;;;;;;;3.15;2.10;;;14.10;84.20;;;;;;5046831;28;20487;-63
2021/05/17 00:06:34;;;;;;;4.53;2.15;;;14.00;84.30;;;;;;5033335;28;20041;-65
2021/05/17 00:09:00;;;;;;;3.03;2.13;;;14.00;83.30;;;;;;5034972;28;20043;-66
2021/05/17 00:11:25;;;;;;;3.90;2.45;;;13.70;84.50;;;;;;5035592;28;20113;-67
2021/05/17 00:13:51;;;;;;;5.18;2.50;;;13.40;85.10;;;;;;5033927;28;20044;-65
2021/05/17 00:16:18;;;;;;;4.60;2.20;;;13.30;85.90;;;;;;5030770;28;20045;-65
2021/05/17 00:18:43;;;;;;;3.88;2.10;;;13.10;85.70;;;;;;5044662;28;20063;-66
2021/05/17 00:21:09;;;;;;;3.10;2.60;;;13.10;86.10;;;;;;5039468;28;20473;-66
2021/05/17 00:23:36;;;;;;;4.28;2.72;;;13.10;85.90;;;;;;5035786;28;20041;-64
2021/05/17 00:26:02;;;;;;;5.15;2.30;;;13.00;86.00;;;;;;5031931;28;20033;-66
2021/05/17 00:28:28;;;;;;;2.88;2.10;;;12.90;86.40;;;;;;5045194;28;20030;-64
2021/05/17 00:30:53;;;;;;;3.17;2.25;;;12.90;87.30;;;;;;5045027;28;20037;-66
2021/05/17 00:33:19;;;;;;;2.45;2.15;;;12.80;88.00;;;;;;5040970;28;20701;-65
2021/05/17 00:35:45;;;;;;;4.22;2.10;;;12.70;88.60;;;;;;5032618;28;20463;-65
2021/05/17 00:38:11;;;;;;;4.03;2.10;;;12.70;89.50;;;;;;5031951;28;20520;-65
2021/05/17 00:40:37;;;;;;;2.08;1.88;;;12.70;90.00;;;;;;5044386;28;20112;-64
2021/05/17 00:43:06;;;;;;;3.05;2.13;;;12.70;90.20;;;;;;5044505;28;20025;-63
2021/05/17 00:45:32;;;;;;;3.13;2.00;;;12.70;90.40;;;;;;5040866;28;20054;-65
2021/05/17 00:47:58;;;;;;;2.65;1.98;;;12.60;90.50;;;;;;5041444;28;20056;-65
2021/05/17 00:50:26;;;;;;;2.42;1.90;;;12.40;90.90;;;;;;5034599;28;20045;-65
2021/05/17 00:52:53;;;;;;;4.47;2.30;;;12.30;91.30;;;;;;5039235;28;20018;-66
2021/05/17 00:55:20;;;;;;;3.60;2.13;;;12.40;91.20;;;;;;5036121;28;20083;-63
2021/05/17 00:57:45;;;;;;;3.83;2.42;;;12.40;91.30;;;;;;5044910;28;20025;-65
2021/05/17 01:00:15;;;;;;;2.67;2.10;;;12.50;91.00;;;;;;5042755;28;20029;-64
2021/05/17 01:02:41;;;;;;;3.70;2.20;;;12.70;90.80;;;;;;5041026;28;20119;-65
2021/05/17 01:05:08;;;;;;;4.55;2.45;;;12.70;91.10;;;;;;5035315;28;20048;-66
2021/05/17 01:07:36;;;;;;;2.35;2.13;;;12.80;90.80;;;;;;5044589;28;20037;-66
2021/05/17 01:10:03;;;;;;;2.50;1.90;;;12.70;91.30;;;;;;5036163;28;20385;-65
2021/05/17 01:12:32;;;;;;;2.17;1.77;;;12.60;91.30;;;;;;5048023;28;20378;-65
2021/05/17 01:14:59;;;;;;;2.70;1.83;;;12.60;91.40;;;;;;5034663;28;20025;-65
2021/05/17 01:17:25;;;;;;;4.65;2.10;;;12.70;91.40;;;;;;5034918;28;20056;-65
2021/05/17 01:20:10;;;;;;;4.25;1.95;;;12.80;91.10;;;;;;5039103;28;20465;-65
2021/05/17 01:23:00;;;;;;;2.60;2.00;;;13.00;90.90;;;;;;5042550;28;20047;-66
2021/05/17 01:25:28;;;;;;;4.05;2.10;;;13.00;90.60;;;;;;5022847;28;20029;-66
2021/05/17 01:27:55;;;;;;;2.35;2.00;;;13.00;90.90;;;;;;5046557;28;20259;-64
2021/05/17 01:30:22;;;;;;;3.55;1.98;;;12.90;91.00;;;;;;5046130;28;20030;-66
2021/05/17 01:32:52;;;;;;;3.70;2.17;;;12.80;91.40;;;;;;5037137;28;20052;-66
2021/05/17 01:35:18;;;;;;;3.75;2.70;;;12.80;91.50;;;;;;5039525;28;20025;-66
2021/05/17 01:37:45;;;;;;;4.10;2.30;;;12.80;91.40;;;;;;5034582;28;20059;-65
2021/05/17 01:40:11;;;;;;;3.33;2.08;;;12.90;91.20;;;;;;5046492;28;20056;-66
2021/05/17 01:42:39;;;;;;;7.55;2.50;;;12.90;91.20;;;;;;5037380;28;20120;-66
2021/05/17 01:45:06;;;;;;;3.25;2.17;;;12.80;91.10;;;;;;5042908;28;20426;-65
2021/05/17 01:47:39;;;;;;;3.35;2.28;;;12.80;91.10;;;;;;5041713;28;20033;-65
2021/05/17 01:50:07;;;;;;;2.53;1.90;;;12.80;91.30;;;;;;5034898;28;20397;-66
2021/05/17 01:52:38;;;;;;;3.80;2.55;;;12.90;91.20;;;;;;5041116;28;20022;-66
2021/05/17 01:55:09;;;;;;;2.80;2.05;;;12.90;91.20;;;;;;5041996;28;20090;-66
2021/05/17 01:57:35;;;;;;;2.63;2.10;;;12.90;91.30;;;;;;5054441;28;20021;-61
2021/05/17 02:00:02;;;;;;;2.95;2.30;;;12.80;91.40;;;;;;5037750;28;20041;-66
2021/05/17 02:02:28;;;;;;;3.83;2.22;;;12.80;91.40;;;;;;5036524;28;20481;-67
2021/05/17 02:04:54;;;;;;;4.20;2.20;;;12.80;91.40;;;;;;5036906;28;20029;-66
2021/05/17 02:07:21;;;;;;;4.60;2.40;;;12.80;91.40;;;;;;5041925;28;20443;-66
2021/05/17 02:09:52;;;;;;;2.55;2.30;;;12.70;91.40;;;;;;5034789;28;20080;-64
2021/05/17 02:12:23;;;;;;;7.72;2.67;;;12.70;91.60;;;;;;5038719;28;20083;-65
2021/05/17 02:14:55;;;;;;;3.88;2.60;;;12.70;91.60;;;;;;5030955;28;20428;-66
2021/05/17 02:17:23;;;;;;;3.60;2.50;;;12.70;91.70;;;;;;5042092;28;20616;-65
2021/05/17 02:19:49;;;;;;;2.67;2.42;;;12.70;91.60;;;;;;5039115;28;20041;-66
2021/05/17 02:22:21;;;;;;;5.82;2.70;;;12.60;91.70;;;;;;5036003;28;20140;-67
2021/05/17 02:24:47;;;;;;;4.03;2.60;;;12.60;91.60;;;;;;5028479;28;20052;-66
2021/05/17 02:27:17;;;;;;;2.95;2.42;;;12.50;91.70;;;;;;5040256;28;20047;-64
2021/05/17 02:29:44;;;;;;;4.85;2.80;;;12.40;92.20;;;;;;5042973;28;20045;-66
2021/05/17 02:32:18;;;;;;;3.85;2.50;;;12.40;92.30;;;;;;5033811;28;20104;-66
2021/05/17 02:34:44;;;;;;;2.72;2.42;;;12.30;92.40;;;;;;5041329;28;20052;-64
2021/05/17 02:37:10;;;;;;;2.60;2.40;;;12.30;92.40;;;;;;5033736;28;20054;-63
2021/05/17 02:39:35;;;;;;;4.57;2.90;;;12.40;92.40;;;;;;5039021;28;20036;-67
2021/05/17 02:42:02;;;;;;;3.13;2.55;;;12.40;92.20;;;;;;5042766;28;20025;-67
2021/05/17 02:44:27;;;;;;;3.70;2.80;;;12.40;92.30;;;;;;5041176;28;20040;-65
2021/05/17 02:46:55;;;;;;;3.70;2.50;;;12.30;92.70;;;;;;5039087;28;20033;-66
2021/05/17 02:49:22;;;;;;;3.58;2.58;;;12.20;92.70;;;;;;5032831;28;20083;-66
2021/05/17 02:51:49;;;;;;;3.42;2.60;;;12.20;92.60;;;;;;5043337;28;20029;-67
2021/05/17 02:54:25;;;;;;;4.15;2.72;;;12.20;92.50;;;;;;5020355;28;20026;-66
2021/05/17 02:57:04;;;;;;;3.40;2.70;;;12.10;92.60;;;;;;5036674;28;20033;-66
2021/05/17 02:59:48;;;;;;;3.75;2.35;;;12.10;92.60;;;;;;5024154;28;20024;-65
2021/05/17 03:02:20;;;;;;;3.00;2.60;;;12.10;92.80;;;;;;5046060;28;20032;-64
2021/05/17 03:04:51;;;;;;;3.83;3.22;;;12.10;92.70;;;;;;5044739;28;20041;-67
2021/05/17 03:07:18;;;;;;;5.28;3.30;;;12.10;92.50;;;;;;5038058;28;20024;-65
2021/05/17 03:09:44;;;;;;;3.90;2.58;;;11.90;92.80;;;;;;5028239;28;20026;-66
2021/05/17 03:12:11;;;;;;;4.88;3.08;;;11.90;93.30;;;;;;5037907;28;20056;-64
2021/05/17 03:14:39;;;;;;;6.35;2.92;;;11.70;93.20;;;;;;5035290;28;20104;-65
2021/05/17 03:17:09;;;;;;;3.70;2.60;;;11.70;93.30;;;;;;5038020;28;20025;-66
2021/05/17 03:19:36;;;;;;;4.45;2.50;;;11.80;93.10;;;;;;5042589;28;20055;-65
2021/05/17 03:22:03;;;;;;;7.68;2.97;;;11.80;93.40;;;;;;5039522;28;20116;-65
2021/05/17 03:24:35;;;;;;;3.38;2.60;;;11.70;93.10;;;;;;5036801;28;20041;-64
2021/05/17 03:27:20;;;;;;;3.80;2.42;;;11.90;92.60;;;;;;5037303;28;20037;-64
2021/05/17 03:29:47;;;;;;;3.55;2.40;;;11.90;92.40;;;;;;5047554;28;20029;-66
2021/05/17 03:32:13;;;;;;;4.25;2.22;;;11.80;92.40;;;;;;5040587;28;20064;-65
2021/05/17 03:34:39;;;;;;;3.03;2.20;;;11.80;92.40;;;;;;5039130;28;20486;-64
2021/05/17 03:37:05;;;;;;;4.90;2.50;;;11.80;92.50;;;;;;5033921;28;20037;-67
2021/05/17 03:39:30;;;;;;;2.60;2.00;;;11.80;92.50;;;;;;5040157;28;20051;-65
2021/05/17 03:41:56;;;;;;;4.60;2.97;;;11.90;92.20;;;;;;5044975;28;20049;-65
2021/05/17 03:44:22;;;;;;;3.53;2.13;;;12.00;92.00;;;;;;5039820;28;20531;-66
2021/05/17 03:46:47;;;;;;;3.53;2.20;;;12.00;92.10;;;;;;5039034;28;20516;-66
2021/05/17 03:49:13;;;;;;;3.15;2.53;;;12.00;92.20;;;;;;5031785;28;20067;-64
2021/05/17 03:51:38;;;;;;;4.82;2.35;;;12.00;91.90;;;;;;5041593;28;20124;-65
2021/05/17 03:54:04;;;;;;;2.47;2.13;;;12.00;91.80;;;;;;5042523;28;20482;-66
2021/05/17 03:56:29;;;;;;;3.40;2.42;;;12.00;91.70;;;;;;5036888;28;20505;-66
2021/05/17 03:58:55;;;;;;;11.35;3.63;;;12.00;91.70;;;;;;5037152;28;20029;-66
2021/05/17 04:01:21;;;;;;;2.70;2.15;;;11.80;91.60;;;;;;5032283;28;20029;-67
2021/05/17 04:03:47;;;;;;;4.80;2.60;;;11.50;92.30;;;;;;5041363;28;20436;-66
2021/05/17 04:06:43;;;;;;;2.38;2.10;;;11.30;92.60;;;;;;5039986;28;20044;-66
2021/05/17 04:14:26;;;;;;;2.30;2.03;;;11.10;92.90;;;;;;5046179;28;20268;-65
2021/05/17 04:16:52;;;;;;;3.28;2.10;;;11.10;92.90;;;;;;5042225;28;20418;-65
2021/05/17 04:19:19;;;;;;;2.15;1.88;;;11.20;92.60;;;;;;5040890;28;20025;-65
2021/05/17 04:21:45;;;;;;;3.25;2.08;;;11.10;92.80;;;;;;5022408;28;20030;-66
2021/05/17 04:24:11;;;;;;;2.97;2.17;;;11.10;92.70;;;;;;5027596;28;20398;-65
2021/05/17 04:26:37;;;;;;;3.90;1.95;;;11.20;92.60;;;;;;5027955;28;20061;-65
2021/05/17 04:29:03;;;;;;;3.42;2.70;;;11.30;92.40;;;;;;5044201;28;20403;-64
2021/05/17 04:31:29;;;;;;;5.03;2.35;;;11.40;92.40;;;;;;5038097;28;20033;-65
2021/05/17 04:33:54;;;;;;;3.95;2.40;;;11.50;92.20;;;;;;5035281;28;20083;-66
2021/05/17 04:36:20;;;;;;;3.40;1.95;;;11.40;92.10;;;;;;5031860;28;20102;-66
2021/05/17 04:38:46;;;;;;;2.20;2.08;;;11.40;92.10;;;;;;5036931;28;20029;-67
2021/05/17 04:41:11;;;;;;;4.28;2.10;;;11.30;92.40;;;;;;5043174;28;20503;-65
2021/05/17 04:43:37;;;;;;;4.03;2.50;;;11.30;92.40;;;;;;5036162;28;20038;-68
2021/05/17 04:46:03;;;;;;;3.38;2.50;;;11.30;92.50;;;;;;5035536;28;20044;-65
2021/05/17 04:48:28;;;;;;;2.08;1.90;;;11.20;92.50;;;;;;5033683;28;20065;-66
2021/05/17 04:50:54;;;;;;;2.50;2.00;;;11.10;92.70;;;;;;5048052;28;20508;-67
2021/05/17 04:53:19;;;;;;;3.38;1.98;;;11.20;92.70;;;;;;5040113;28;20130;-66
2021/05/17 04:55:45;;;;;;;3.17;2.40;;;11.20;92.60;;;;;;5037863;28;20087;-64
2021/05/17 04:58:10;;;;;;;3.58;2.03;;;11.10;92.70;;;;;;5034599;28;20456;-64
2021/05/17 05:00:36;;;;;;;2.67;2.20;;;11.10;92.90;;;;;;5049841;28;20072;-66
2021/05/17 05:03:02;;;;;;;2.67;2.10;;;11.10;92.90;;;;;;5042386;28;20036;-66
2021/05/17 05:05:27;;;;;;;4.40;2.22;;;11.30;92.90;;;;;;5043143;28;20033;-66
2021/05/17 05:07:53;;;;;;;3.42;2.20;;;11.30;92.60;;;;;;5036752;28;20124;-65
2021/05/17 05:10:19;;;;;;;2.63;2.20;;;11.30;92.90;;;;;;5020296;28;20041;-64
2021/05/17 05:12:44;;;;;;;3.05;2.20;;;11.40;92.80;;;;;;5038258;28;20045;-66
2021/05/17 05:15:10;;;;;;;2.95;2.40;;;11.40;92.90;;;;;;5037293;28;20536;-66
2021/05/17 05:17:36;;;;;;;3.55;2.80;;;11.40;92.90;;;;;;5034963;28;20044;-66
2021/05/17 05:20:03;;;;;;;3.83;2.30;;;11.40;93.10;;;;;;5036282;28;20432;-67
2021/05/17 05:22:28;;;;;;;3.95;2.63;;;11.50;92.80;;;;;;5043344;28;20060;-66
2021/05/17 05:24:57;;;;;;;3.53;2.40;;;11.50;92.80;;;;;;5031596;28;20033;-65
2021/05/17 05:32:37;;;;;;;3.55;2.47;;;11.50;93.00;;;;;;5056684;28;20505;-64
2021/05/17 05:35:03;;;;;;;3.88;2.47;;;11.60;93.10;;;;;;5054175;28;20036;-67
2021/05/17 05:37:29;;;;;;;3.60;2.63;;;11.60;93.10;;;;;;5044967;28;20377;-66
2021/05/17 05:39:55;;;;;;;6.97;2.58;;;11.60;92.90;;;;;;5055420;28;20116;-64
2021/05/17 05:42:20;;;;;;;6.13;3.20;;;11.60;92.80;;;;;;5052575;28;20029;-66
2021/05/17 05:44:48;;;;;;;4.07;2.50;;;11.60;93.20;;;;;;5055724;28;20086;-63
2021/05/17 05:47:16;;;;;;;7.82;2.75;;;11.70;92.40;;;;;;5048520;28;20067;-66
2021/05/17 05:49:46;;;;;;;8.18;2.90;;;11.70;92.40;;;;;;5034252;28;20029;-67
2021/05/17 05:52:13;;;;;;;4.15;3.53;;;11.80;92.20;;;;;;5049763;28;20037;-65
2021/05/17 05:54:39;;;;;;;7.35;3.20;;;11.70;92.60;;;;;;5043166;28;20014;-66
2021/05/17 05:57:07;;;;;;;5.70;2.80;;;11.80;92.20;;;;;;5047584;28;20443;-66
2021/05/17 05:59:33;;;;;;;5.43;3.00;;;11.80;92.20;;;;;;5039159;28;20033;-68
2021/05/17 06:01:59;;;;;;;4.82;2.85;;;11.90;92.10;;;;;;5035665;28;20029;-66
2021/05/17 06:04:25;;;;;;;4.57;2.72;;;11.90;91.90;;;;;;5040841;28;20133;-67
2021/05/17 06:06:50;;;;;;;3.78;3.00;;;11.80;91.50;;;;;;5037691;28;20469;-65
2021/05/17 06:09:16;;;;;;;4.28;2.60;;;11.70;92.00;;;;;;5035726;28;20057;-65
2021/05/17 06:11:42;;;;;;;5.85;3.10;;;11.80;91.80;;;;;;5040626;28;20068;-66
2021/05/17 06:14:08;;;;;;;4.50;3.25;;;11.80;91.70;;;;;;5041564;28;20040;-66
2021/05/17 06:16:34;;;;;;;3.85;2.58;;;11.90;91.40;;;;;;5041173;28;20117;-67
2021/05/17 06:19:01;;;;;;;4.40;3.10;;;11.90;91.10;;;;;;5054938;28;20083;-65
2021/05/17 06:21:28;;;;;;;3.92;2.83;;;12.00;90.70;;;;;;5038427;28;20082;-67
2021/05/17 06:23:55;;;;;;;5.65;2.60;;;12.00;90.90;;;;;;5047197;28;20030;-66
2021/05/17 06:26:21;;;;;;;4.32;2.58;;;12.00;90.70;;;;;;5039003;28;20034;-65
2021/05/17 06:28:47;;;;;;;3.10;2.40;;;12.20;90.80;;;;;;5029431;28;20099;-66
2021/05/17 06:31:13;;;;;;;3.30;2.60;;;12.40;90.70;;;;;;5039382;28;20053;-67
2021/05/17 06:33:42;;;;;;;5.28;2.80;;;12.50;90.60;;;;;;5033495;28;20033;-67
2021/05/17 06:36:11;;;;;;;4.60;2.97;;;12.40;90.20;;;;;;5030377;28;20044;-67
2021/05/17 06:38:39;;;;;;;3.72;2.95;;;12.50;89.70;;;;;;5033785;28;20400;-67
2021/05/17 06:41:05;;;;;;;3.25;2.88;;;12.50;90.10;;;;;;5037849;28;20518;-66
2021/05/17 06:43:32;;;;;;;4.90;2.92;;;12.50;90.20;;;;;;5031367;28;20064;-66
2021/05/17 06:45:57;;;;;;;9.73;3.50;;;12.70;89.90;;;;;;5037735;28;20087;-66
2021/05/17 06:48:23;;;;;;;6.60;3.42;;;12.60;89.70;;;;;;5023715;28;20041;-66
2021/05/17 06:50:49;;;;;;;4.35;3.35;;;12.50;90.20;;;;;;5031392;28;20040;-67
2021/05/17 06:53:15;;;;;;;3.80;2.83;;;12.60;89.70;;;;;;5036560;28;20069;-66
2021/05/17 06:55:59;;;;;;;5.60;3.50;;;12.70;89.70;;;;;;5035020;28;20038;-67
2021/05/17 06:58:35;;;;;;;4.65;3.10;;;12.70;89.70;;;;;;5020970;28;20045;-65
2021/05/17 07:01:00;;;;;;;9.05;3.60;;;12.70;89.40;;;;;;5016766;28;20057;-66
2021/05/17 07:03:26;;;;;;;16.15;4.18;;;12.70;89.20;;;;;;5014885;28;20026;-66
2021/05/17 07:05:55;;;;;;;11.43;3.40;;;12.90;88.60;;;;;;5018706;28;20034;-66
2021/05/17 07:13:50;;;;;;;10.40;3.92;;;13.00;88.00;;;;;;5014368;28;20038;-65
2021/05/17 07:16:16;;;;;;;7.70;3.50;;;12.90;88.20;;;;;;5025792;28;20044;-66
2021/05/17 07:18:41;;;;;;;6.15;2.85;;;13.00;88.20;;;;;;5019596;28;20041;-65
2021/05/17 07:23:42;;;;;;;7.60;3.60;;;13.20;88.50;;;;;;5014864;28;20083;-63
2021/05/17 07:26:14;;;;;;;15.23;3.65;;;13.40;87.50;;;;;;5017981;28;20767;-66
2021/05/17 07:28:40;;;;;;;17.15;3.78;;;13.60;85.40;;;;;;5017612;28;20654;-65
2021/05/17 07:31:07;;;;;;;6.45;3.42;;;13.60;85.80;;;;;;5029036;28;20120;-66
2021/05/17 07:33:33;;;;;;;5.97;3.60;;;13.60;85.70;;;;;;5015662;28;20030;-65
2021/05/17 07:36:00;;;;;;;5.43;3.50;;;13.70;86.20;;;;;;5016892;28;20037;-65
2021/05/17 07:38:30;;;;;;;7.35;3.30;;;13.70;86.10;;;;;;5016236;28;20057;-65
2021/05/17 07:40:58;;;;;;;5.40;2.97;;;13.70;85.80;;;;;;5015354;28;20164;-66
2021/05/17 07:43:24;;;;;;;6.40;3.00;;;13.70;85.90;;;;;;5014558;28;20496;-65
2021/05/17 07:45:50;;;;;;;14.30;4.00;;;13.90;85.70;;;;;;5019514;28;20044;-64
2021/05/17 07:48:16;;;;;;;6.55;3.45;;;14.00;86.00;;;;;;5014410;28;20058;-65
2021/05/17 07:50:42;;;;;;;4.50;2.92;;;14.10;85.90;;;;;;5030603;28;20171;-65
2021/05/17 07:53:08;;;;;;;4.90;3.08;;;13.90;85.40;;;;;;5029055;28;20036;-65
2021/05/17 07:55:34;;;;;;;4.85;3.22;;;13.90;85.80;;;;;;5015769;28;20034;-61
2021/05/17 07:58:00;;;;;;;4.38;3.42;;;13.90;85.20;;;;;;5014588;28;20034;-63
2021/05/17 08:00:25;;;;;;;5.53;3.40;;;13.90;86.10;;;;;;5026345;28;20037;-65
2021/05/17 08:02:51;;;;;;;6.10;3.30;;;14.10;86.30;;;;;;5017824;28;20025;-66
2021/05/17 08:05:17;;;;;;;4.32;3.10;;;14.10;85.50;;;;;;5018771;28;20505;-64
2021/05/17 08:07:43;;;;;;;6.45;3.17;;;14.10;86.10;;;;;;5037765;28;20121;-66
2021/05/17 08:10:11;;;;;;;6.28;3.75;;;14.10;85.30;;;;;;5026444;28;20029;-64
2021/05/17 08:12:37;;;;;;;4.40;3.20;;;14.30;85.30;;;;;;5026101;28;20030;-66
2021/05/17 08:15:04;;;;;;;5.28;2.92;;;14.40;84.30;;;;;;5020103;28;20037;-64
2021/05/17 08:17:30;;;;;;;4.30;2.95;;;14.50;83.50;;;;;;5017737;28;20046;-66
2021/05/17 08:19:56;;;;;;;6.50;3.15;;;14.70;82.70;;;;;;5023328;28;20091;-65
2021/05/17 08:22:22;;;;;;;5.55;3.35;;;14.70;83.20;;;;;;5019282;28;20800;-61
2021/05/17 08:24:47;;;;;;;4.22;3.00;;;14.50;83.60;;;;;;5018787;28;20032;-64
2021/05/17 08:27:13;;;;;;;5.90;2.92;;;14.30;83.30;;;;;;5035813;28;20026;-64
2021/05/17 08:29:39;;;;;;;6.95;3.10;;;14.60;82.80;;;;;;5019452;28;21680;-65
2021/05/17 08:32:09;;;;;;;4.68;2.90;;;14.70;83.00;;;;;;5017685;28;20038;-65
2021/05/17 08:34:35;;;;;;;5.38;3.17;;;14.70;83.50;;;;;;5018262;28;20516;-65
2021/05/17 08:37:01;;;;;;;4.03;2.85;;;15.00;83.20;;;;;;5018282;28;20133;-65
2021/05/17 08:39:27;;;;;;;7.25;3.13;;;14.80;81.50;;;;;;5013369;28;20037;-67
2021/05/17 08:41:53;;;;;;;4.78;3.08;;;14.70;82.30;;;;;;5016290;28;20033;-65
2021/05/17 08:44:18;;;;;;;8.05;3.83;;;15.00;81.70;;;;;;5013734;28;20030;-65
2021/05/17 08:46:48;;;;;;;4.85;3.25;;;14.70;82.10;;;;;;5023857;28;20036;-65
2021/05/17 08:49:14;;;;;;;4.60;2.85;;;14.60;82.60;;;;;;5030586;28;20022;-66
2021/05/17 08:51:40;;;;;;;4.70;2.90;;;14.60;82.80;;;;;;5018940;28;20053;-64
2021/05/17 08:54:07;;;;;;;3.88;2.85;;;14.70;82.30;;;;;;5041343;28;20442;-66
2021/05/17 08:56:34;;;;;;;5.85;2.90;;;14.80;81.80;;;;;;5019380;28;20037;-67
2021/05/17 08:59:03;;;;;;;5.25;2.78;;;14.90;81.10;;;;;;5033598;28;20056;-65
2021/05/17 09:01:29;;;;;;;5.82;3.13;;;14.90;80.10;;;;;;5032020;28;20048;-65
2021/05/17 09:04:00;;;;;;;6.82;2.90;;;14.80;79.80;;;;;;5024060;28;20120;-65
2021/05/17 09:06:57;;;;;;;7.50;3.08;;;15.00;80.50;;;;;;5032034;28;20065;-65
2021/05/17 09:09:33;;;;;;;5.45;3.00;;;15.10;80.40;;;;;;5025963;28;20448;-67
2021/05/17 09:12:03;;;;;;;6.13;3.20;;;15.00;81.00;;;;;;5019853;28;20091;-65
2021/05/17 09:14:30;;;;;;;4.53;2.80;;;15.10;81.30;;;;;;5029861;28;20057;-66
2021/05/17 09:16:56;;;;;;;7.03;3.00;;;15.00;81.10;;;;;;5034797;28;20035;-65
2021/05/17 09:19:23;;;;;;;6.32;2.75;;;14.90;79.60;;;;;;5020024;28;20046;-67
2021/05/17 09:22:09;;;;;;;4.97;2.72;;;15.30;77.40;;;;;;5026031;28;20022;-64
2021/05/17 09:24:48;;;;;;;5.50;3.00;;;15.60;76.50;;;;;;5014564;28;20030;-65
2021/05/17 09:27:34;;;;;;;7.25;2.70;;;15.70;77.10;;;;;;5013896;28;20667;-67
2021/05/17 09:30:04;;;;;;;7.60;3.67;;;15.90;77.10;;;;;;5021146;28;20050;-66
2021/05/17 09:32:36;;;;;;;3.85;2.60;;;15.90;77.20;;;;;;5017565;28;20029;-65
2021/05/17 09:35:06;;;;;;;3.33;2.47;;;15.90;77.90;;;;;;5017082;28;20029;-66
2021/05/17 09:37:56;;;;;;;4.78;2.60;;;16.00;76.90;;;;;;5029322;28;20084;-63
2021/05/17 09:40:25;;;;;;;6.30;2.70;;;15.80;77.40;;;;;;5024817;28;20060;-65
2021/05/17 09:43:05;;;;;;;6.38;2.75;;;15.70;77.00;;;;;;5037172;28;20037;-65
2021/05/17 09:45:33;;;;;;;6.03;2.90;;;15.50;77.30;;;;;;5034205;28;20046;-66
2021/05/17 09:47:59;;;;;;;8.38;2.70;;;15.60;76.70;;;;;;5035937;28;20045;-64
2021/05/17 09:50:25;;;;;;;7.30;2.50;;;15.70;76.70;;;;;;5035128;28;20042;-67
2021/05/17 09:52:50;;;;;;;4.25;2.63;;;15.90;76.00;;;;;;5034064;28;20103;-66
2021/05/17 09:55:16;;;;;;;5.78;2.60;;;15.90;76.30;;;;;;5033784;28;20029;-68
2021/05/17 09:57:47;;;;;;;6.15;2.58;;;15.90;76.30;;;;;;5033397;28;20041;-65
2021/05/17 10:00:18;;;;;;;6.43;3.28;;;16.20;76.10;;;;;;5029091;28;20056;-64
2021/05/17 10:02:45;;;;;;;4.93;2.78;;;16.40;73.70;;;;;;5042296;28;20025;-66
2021/05/17 10:05:34;;;;;;;5.03;2.80;;;16.40;74.70;;;;;;5026301;28;20025;-65
2021/05/17 10:07:59;;;;;;;4.07;2.50;;;16.70;74.70;;;;;;5035001;28;20802;-65
2021/05/17 10:10:27;;;;;;;5.97;3.35;;;16.50;74.00;;;;;;5034016;28;20033;-65
2021/05/17 10:12:55;;;;;;;4.00;2.83;;;16.60;73.90;;;;;;5042875;28;20033;-66
2021/05/17 10:15:22;;;;;;;4.03;2.53;;;16.40;73.40;;;;;;5033734;28;20041;-66
2021/05/17 10:17:48;;;;;;;8.48;2.72;;;16.30;72.90;;;;;;5037184;28;20033;-65
2021/05/17 10:20:18;;;;;;;5.22;2.35;;;16.10;74.10;;;;;;5043631;28;20045;-66
2021/05/17 10:22:45;;;;;;;4.45;2.70;;;16.10;75.10;;;;;;5036426;28;20040;-67
2021/05/17 10:25:13;;;;;;;6.97;2.83;;;16.10;76.40;;;;;;5036797;28;20056;-64
2021/05/17 10:27:46;;;;;;;5.68;2.63;;;16.20;76.50;;;;;;5036370;28;20040;-65
2021/05/17 10:30:16;;;;;;;4.78;2.78;;;16.10;76.40;;;;;;5034360;28;20033;-67
2021/05/17 10:32:43;;;;;;;6.45;2.67;;;16.20;76.60;;;;;;5034666;28;20044;-65
2021/05/17 10:35:18;;;;;;;4.63;2.80;;;16.50;75.90;;;;;;5043982;28;20029;-63
2021/05/17 10:37:45;;;;;;;;;;;16.40;74.50;;;;;;5038215;28;20067;-64
2021/05/17 10:40:40;;;;;;;4.60;2.50;;;16.20;75.90;;;;;;5023619;28;20381;-66
2021/05/17 10:48:29;;;;;;;4.40;2.78;;;16.70;73.10;;;;;;5030333;28;20037;-64
2021/05/17 10:51:17;;;;;;;5.13;2.92;;;16.50;72.50;;;;;;5037523;28;20146;-65
2021/05/17 10:53:58;;;;;;;6.60;2.25;;;16.40;72.90;;;;;;5012813;28;20711;-64
2021/05/17 11:02:08;;;;;;;6.07;2.30;;;16.50;72.80;;;;;;5025409;28;20037;-67
2021/05/17 11:04:36;;;;;;;4.13;2.30;;;16.60;70.20;;;;;;5024197;28;20460;-65
2021/05/17 11:07:26;;;;;;;5.53;2.20;;;16.80;69.70;;;;;;5038840;28;20037;-67
2021/05/17 11:09:59;;;;;;;3.53;2.38;;;16.80;70.90;;;;;;5035780;28;20064;-68
2021/05/17 11:12:27;;;;;;;7.63;2.50;;;16.70;71.80;;;;;;5041887;28;20033;-66
2021/05/17 11:15:04;;;;;;;2.80;1.92;;;16.60;72.90;;;;;;5026497;28;20045;-65
2021/05/17 11:17:30;;;;;;;2.83;2.15;;;16.40;72.00;;;;;;5031674;28;20799;-64
2021/05/17 11:19:56;;;;;;;3.78;2.20;;;16.50;72.90;;;;;;5032350;28;20121;-65
2021/05/17 11:22:51;;;;;;;3.50;1.83;;;16.30;74.00;;;;;;5031689;28;20045;-64
2021/05/17 11:25:17;;;;;;;3.30;1.85;;;16.40;72.30;;;;;;5030438;28;20108;-66
2021/05/17 11:27:47;;;;;;;2.47;1.70;;;16.40;73.40;;;;;;5031368;28;20045;-64
2021/05/17 11:30:38;;;;;;;2.17;1.75;;;16.70;71.70;;;;;;5038177;28;20034;-68
2021/05/17 11:33:15;;;;;;;2.88;1.50;;;16.90;70.90;;;;;;5034927;28;20065;-65
2021/05/17 11:36:00;;;;;;;3.38;1.90;;;16.90;70.10;;;;;;5044572;28;20032;-65
2021/05/17 11:38:27;;;;;;;4.38;1.75;;;16.70;69.80;;;;;;5031346;28;20037;-68
2021/05/17 11:40:52;;;;;;;3.05;1.80;;;16.70;71.10;;;;;;5040827;28;20045;-65
2021/05/17 11:43:19;;;;;;;3.30;1.88;;;16.70;70.90;;;;;;5042872;28;20087;-64
2021/05/17 11:45:45;;;;;;;3.38;2.08;;;16.50;71.80;;;;;;5038519;28;20033;-66
2021/05/17 11:48:11;;;;;;;4.88;2.28;;;16.70;72.20;;;;;;5034994;28;20049;-67
2021/05/17 11:50:37;;;;;;;3.90;2.22;;;16.50;71.30;;;;;;5036212;28;20094;-64
2021/05/17 11:53:03;;;;;;;6.47;2.20;;;16.40;71.90;;;;;;5041787;28;20045;-66
2021/05/17 11:55:29;;;;;;;2.63;1.92;;;16.40;72.50;;;;;;5033923;28;20091;-65
2021/05/17 11:57:55;;;;;;;9.70;3.33;;;16.70;72.30;;;;;;5032506;28;20038;-66
2021/05/17 12:00:24;;;;;;;6.85;2.35;;;17.00;72.60;;;;;;5020070;28;20038;-66
2021/05/17 12:02:52;;;;;;;2.85;2.60;;;17.30;72.00;;;;;;5029745;28;20087;-66
2021/05/17 12:05:20;;;;;;;3.40;2.35;;;17.20;71.50;;;;;;5034002;28;20052;-65
2021/05/17 12:07:47;;;;;;;5.88;2.50;;;17.30;71.00;;;;;;5037688;28;20037;-66
2021/05/17 12:10:15;;;;;;;7.15;2.58;;;17.30;70.60;;;;;;5023683;28;20068;-65
2021/05/17 12:12:41;;;;;;;3.75;2.35;;;17.10;71.70;;;;;;5048592;28;20408;-62
2021/05/17 12:15:12;;;;;;;3.90;2.55;;;17.20;72.20;;;;;;5028979;28;20041;-64
2021/05/17 12:17:38;;;;;;;6.30;1.98;;;17.40;72.10;;;;;;5031268;28;20034;-63
2021/05/17 12:20:12;;;;;;;3.03;2.10;;;17.80;71.20;;;;;;5033653;28;20068;-65
2021/05/17 12:22:44;;;;;;;3.78;1.73;;;17.50;70.60;;;;;;5027405;28;20056;-65
2021/05/17 12:25:11;;;;;;;3.53;2.00;;;17.40;70.40;;;;;;5034314;28;20041;-66
2021/05/17 12:27:37;;;;;;;1.95;1.63;;;17.80;68.50;;;;;;5025985;28;20044;-63
2021/05/17 12:30:14;;;;;;;1.50;1.40;;;17.70;67.20;;;;;;5033479;28;20025;-64
2021/05/17 12:32:58;;;;;;;1.67;1.58;;;18.00;67.30;;;;;;5047831;28;20192;-65
2021/05/17 12:35:24;;;;;;;1.63;1.30;;;18.40;65.80;;;;;;5024376;28;20112;-65
2021/05/17 12:37:52;;;;;;;2.75;1.50;;;18.10;64.70;;;;;;5022445;28;20037;-65
2021/05/17 12:40:43;;;;;;;2.25;1.67;;;18.20;65.70;;;;;;5026902;28;20123;-65
2021/05/17 12:43:17;;;;;;;5.55;2.00;;;18.40;65.00;;;;;;5020041;28;20037;-65
2021/05/17 12:45:44;;;;;;;2.20;1.30;;;18.20;65.70;;;;;;5017428;28;20038;-66
2021/05/17 12:48:48;;;;;;;1.58;1.48;;;18.00;65.80;;;;;;5019707;28;20167;-65
2021/05/17 12:51:18;;;;;;;2.15;1.60;;;17.70;67.10;;;;;;4998202;28;20073;-63
2021/05/17 12:53:45;;;;;;;2.97;1.70;;;17.90;66.80;;;;;;5031407;28;20458;-62
2021/05/17 12:56:31;;;;;;;4.35;1.58;;;17.80;67.60;;;;;;5037196;28;20061;-62
2021/05/17 12:59:10;;;;;;;2.35;1.60;;;18.50;64.80;;;;;;5028830;28;20052;-62
2021/05/17 13:01:37;;;;;;;2.85;1.65;;;18.30;64.80;;;;;;5042770;28;20049;-63
2021/05/17 13:04:03;;;;;;;3.50;1.85;;;18.00;66.50;;;;;;5043707;28;20049;-62
2021/05/17 13:06:30;;;;;;;1.92;1.73;;;18.30;66.20;;;;;;5038597;28;20029;-63
2021/05/17 13:09:22;;;;;;;3.22;1.90;;;18.80;66.20;;;;;;5028898;28;20108;-62
2021/05/17 13:11:55;;;;;;;1.60;1.50;;;18.70;64.70;;;;;;5032412;28;20045;-63
2021/05/17 13:14:23;;;;;;;3.92;1.70;;;18.40;64.00;;;;;;5039303;28;20030;-63
2021/05/17 13:16:55;;;;;;;4.72;1.80;;;18.30;65.10;;;;;;5038451;28;20179;-62
2021/05/17 13:24:53;;;;;;;1.83;1.60;;;17.90;67.90;;;;;;5040535;28;20037;-63
2021/05/17 13:30:18;;;;;;;4.82;2.00;;;18.00;68.00;;;;;;5038998;28;20525;-63
2021/05/17 13:32:49;;;;;;;2.25;1.58;;;18.00;68.40;;;;;;5021365;28;20048;-62
2021/05/17 13:35:16;;;;;;;4.85;1.95;;;17.80;68.50;;;;;;5021444;28;20032;-62